Time;durP1;ratioP1;P1;durP2;ratioP2;P2;SDS_P1;SDS_P2;PMS_P1;PMS_P2;Temp;Humidity;BMP_temperature;BMP_pressure;BME280_temperature;BME280_humidity;BME280_pressure;Samples;Min_cycle;Max_cycle;Signal;HPM_P1;HPM_P2
2021/10/05 00:00:15;;;;;;;;;2.00;2.00;;;;;17.56;60.14;100554.31;2091717;28;47107;-50
2021/10/05 00:01:16;;;;;;;;;1.00;1.00;;;;;17.56;60.51;100551.63;2091554;28;47322;-48
2021/10/05 00:02:16;;;;;;;;;1.33;1.33;;;;;17.55;60.53;100547.22;2077772;28;47363;-49
2021/10/05 00:03:17;;;;;;;;;2.00;2.00;;;;;17.54;60.14;100548.16;2088859;28;47409;-47
2021/10/05 00:04:17;;;;;;;;;3.00;2.00;;;;;17.53;60.20;100546.44;2092167;28;47456;-46
2021/10/05 00:05:18;;;;;;;;;1.33;1.33;;;;;17.53;60.33;100541.06;2092109;28;46436;-46
2021/10/05 00:06:18;;;;;;;;;3.00;2.00;;;;;17.52;60.34;100538.44;2092259;28;47042;-48
2021/10/05 00:07:19;;;;;;;;;2.00;2.00;;;;;17.51;60.21;100542.94;2091771;28;47283;-48
2021/10/05 00:08:19;;;;;;;;;2.00;2.00;;;;;17.50;60.23;100543.88;2091636;28;47661;-50
2021/10/05 00:09:20;;;;;;;;;2.33;2.33;;;;;17.49;60.21;100541.28;2092025;28;46516;-48
2021/10/05 00:10:20;;;;;;;;;1.00;1.00;;;;;17.47;60.52;100535.13;2092000;28;48148;-48
2021/10/05 00:11:21;;;;;;;;;1.33;1.33;;;;;17.46;60.66;100534.28;2092128;28;46343;-51
2021/10/05 00:12:21;;;;;;;;;1.00;1.00;;;;;17.46;60.39;100534.28;2092100;28;48010;-48
2021/10/05 00:13:22;;;;;;;;;1.00;1.00;;;;;17.46;60.44;100536.09;2091087;28;48200;-46
2021/10/05 00:14:23;;;;;;;;;0.25;0.25;;;;;17.45;60.46;100535.22;2091632;28;45122;-49
2021/10/05 00:15:24;;;;;;;;;1.67;1.00;;;;;17.44;60.69;100536.19;2091290;28;46408;-48
2021/10/05 00:16:25;;;;;;;;;1.25;1.25;;;;;17.43;60.81;100530.91;2091382;28;48133;-48
2021/10/05 00:17:25;;;;;;;;;1.67;1.00;;;;;17.42;60.69;100535.41;2091992;28;48108;-46
2021/10/05 00:18:26;;;;;;;;;2.00;2.00;;;;;17.41;60.61;100530.97;2091610;28;47057;-48
2021/10/05 00:19:26;;;;;;;;;2.00;2.00;;;;;17.41;60.84;100535.47;2098902;28;48258;-46
2021/10/05 00:20:27;;;;;;;;;2.00;2.00;;;;;17.39;60.77;100527.47;2092488;27;47450;-48
2021/10/05 00:21:27;;;;;;;;;2.33;2.33;;;;;17.39;60.81;100522.13;2091691;28;47459;-49
2021/10/05 00:22:28;;;;;;;;;1.00;1.00;;;;;17.38;60.82;100523.06;2092078;28;48141;-49
2021/10/05 00:23:28;;;;;;;;;1.67;1.67;;;;;17.38;60.92;100524.88;2091750;28;48392;-51
2021/10/05 00:24:29;;;;;;;;;1.00;1.00;;;;;17.36;60.65;100524.97;2091961;28;47943;-51
2021/10/05 00:25:29;;;;;;;;;1.00;1.00;;;;;17.35;60.92;100521.41;2082780;28;47064;-51
2021/10/05 00:26:30;;;;;;;;;4.00;2.00;;;;;17.35;60.62;100520.56;2082846;28;48176;-51
2021/10/05 00:27:30;;;;;;;;;1.00;1.00;;;;;17.33;61.11;100526.00;2091288;28;47299;-50
2021/10/05 00:28:31;;;;;;;;;1.33;1.33;;;;;17.33;60.99;100522.47;2090945;28;48230;-46
2021/10/05 00:29:31;;;;;;;;;1.00;1.00;;;;;17.32;61.17;100523.41;2091705;28;46088;-50
2021/10/05 00:30:33;;;;;;;;;2.00;2.00;;;;;17.30;60.86;100523.50;2092059;28;47585;-48
2021/10/05 00:31:33;;;;;;;;;1.00;1.00;;;;;17.30;61.02;100511.91;2091582;28;47173;-46
2021/10/05 00:32:34;;;;;;;;;0.67;0.33;;;;;17.29;60.82;100515.53;2092012;28;47207;-48
2021/10/05 00:33:34;;;;;;;;;1.00;1.00;;;;;17.29;61.33;100519.09;2091473;28;47087;-48
2021/10/05 00:34:35;;;;;;;;;0.00;0.00;;;;;17.27;61.01;100510.22;2091957;28;47276;-48
2021/10/05 00:35:35;;;;;;;;;1.00;1.00;;;;;17.27;60.90;100517.41;2091757;28;48126;-49
2021/10/05 00:36:36;;;;;;;;;1.00;1.00;;;;;17.26;61.17;100511.16;2092077;28;45311;-48
2021/10/05 00:37:36;;;;;;;;;1.00;1.00;;;;;17.25;61.47;100513.94;2091547;28;48320;-47
2021/10/05 00:38:37;;;;;;;;;3.67;1.67;;;;;17.25;61.28;100514.81;2091766;28;48320;-48
2021/10/05 00:39:37;;;;;;;;;0.00;0.00;;;;;17.24;61.37;100518.44;2091572;28;47135;-50
2021/10/05 00:40:39;;;;;;;;;0.67;0.67;;;;;17.22;61.11;100506.06;2092056;28;47042;-49
2021/10/05 00:41:40;;;;;;;;;0.25;0.25;;;;;17.20;61.16;100506.16;2091663;28;47413;-49
2021/10/05 00:42:40;;;;;;;;;0.33;0.33;;;;;17.20;61.42;100513.31;2090863;28;47662;-46
2021/10/05 00:43:41;;;;;;;;;1.67;1.00;;;;;17.19;61.65;100503.53;2090983;28;47259;-48
2021/10/05 00:44:41;;;;;;;;;1.00;1.00;;;;;17.18;61.11;100505.38;2091688;28;48191;-47
2021/10/05 00:45:42;;;;;;;;;0.00;0.00;;;;;17.19;61.67;100504.41;2092355;28;48578;-47
2021/10/05 00:46:42;;;;;;;;;2.00;1.00;;;;;17.18;61.60;100501.81;2092047;28;47137;-47
2021/10/05 00:47:43;;;;;;;;;0.33;0.33;;;;;17.18;61.26;100496.44;2090785;28;47726;-48
2021/10/05 00:48:43;;;;;;;;;1.33;1.33;;;;;17.16;61.51;100499.22;2091130;28;47709;-55
2021/10/05 00:49:47;;;;;;;;;2.67;2.33;;;;;17.16;61.43;100499.22;2091688;28;47250;-47
2021/10/05 00:50:48;;;;;;;;;1.50;1.50;;;;;17.14;61.59;100498.41;2091936;28;48318;-49
2021/10/05 00:51:48;;;;;;;;;1.67;1.67;;;;;17.13;61.74;100494.00;2091495;28;47602;-48
2021/10/05 00:52:51;;;;;;;;;2.00;2.00;;;;;17.13;61.54;100499.34;2091123;28;47616;-51
2021/10/05 00:53:53;;;;;;;;;1.75;1.00;;;;;17.12;61.74;100497.63;2090725;28;47486;-48
2021/10/05 00:54:53;;;;;;;;;1.00;1.00;;;;;17.12;61.52;100489.56;2091850;28;48255;-48
2021/10/05 00:55:54;;;;;;;;;2.00;2.00;;;;;17.13;61.83;100490.44;2091514;28;47886;-52
2021/10/05 00:56:55;;;;;;;;;0.00;0.00;;;;;17.10;61.82;100486.13;2091735;28;47562;-48
2021/10/05 00:57:55;;;;;;;;;2.00;2.00;;;;;17.11;61.76;100489.66;2091341;28;45139;-52
2021/10/05 00:58:56;;;;;;;;;0.67;0.67;;;;;17.10;61.71;100485.25;2091872;28;48294;-50
2021/10/05 00:59:57;;;;;;;;;1.00;1.00;;;;;17.09;62.07;100487.06;2091541;28;48298;-51
2021/10/05 01:00:59;;;;;;;;;2.00;1.25;;;;;17.09;61.87;100486.19;2091255;28;48006;-48
2021/10/05 01:02:01;;;;;;;;;0.00;0.00;;;;;17.07;61.73;100480.91;2082691;28;47235;-49
2021/10/05 01:03:01;;;;;;;;;1.75;1.75;;;;;17.06;61.82;100480.06;2082835;28;47638;-50
2021/10/05 01:04:02;;;;;;;;;0.33;0.33;;;;;17.06;61.91;100479.19;2080504;28;46852;-50
2021/10/05 01:05:03;;;;;;;;;1.00;1.00;;;;;17.04;61.85;100476.59;2080565;28;47434;-49
2021/10/05 01:06:03;;;;;;;;;1.33;1.33;;;;;17.04;61.98;100484.63;2099400;28;48197;-50
2021/10/05 01:07:08;;;;;;;;;2.00;2.00;;;;;17.04;62.18;100478.41;2090737;28;47613;-50
2021/10/05 01:08:09;;;;;;;;;2.00;1.25;;;;;17.05;61.72;100474.78;2091065;28;47283;-47
2021/10/05 01:09:09;;;;;;;;;0.67;0.67;;;;;17.05;62.28;100477.47;2091436;28;48067;-47
2021/10/05 01:10:14;;;;;;;;;1.00;1.00;;;;;17.04;62.09;100473.91;2091744;28;48165;-50
2021/10/05 01:11:14;;;;;;;;;0.00;0.00;;;;;17.04;62.09;100478.41;2091384;28;47156;-49
2021/10/05 01:12:15;;;;;;;;;0.33;0.33;;;;;17.04;61.89;100473.03;2091740;28;48653;-49
2021/10/05 01:13:15;;;;;;;;;2.00;1.00;;;;;17.03;62.01;100468.63;2091124;28;47314;-51
2021/10/05 01:14:16;;;;;;;;;0.00;0.00;;;;;17.02;62.00;100469.56;2091169;28;48023;-48
2021/10/05 01:15:22;;;;;;;;;0.00;0.00;;;;;17.03;62.04;100471.31;2082379;28;46240;-49
2021/10/05 01:16:23;;;;;;;;;2.25;1.75;;;;;17.03;62.15;100468.63;2091082;28;48213;-51
2021/10/05 01:17:24;;;;;;;;;1.00;0.00;;;;;17.02;62.22;100465.09;2091455;28;47127;-47
2021/10/05 01:18:24;;;;;;;;;4.00;1.67;;;;;17.02;61.73;100461.50;2091395;28;47341;-49
2021/10/05 01:19:25;;;;;;;;;2.00;2.00;;;;;17.02;62.03;100466.88;2088021;28;47723;-48
2021/10/05 01:20:25;;;;;;;;;1.00;1.00;;;;;17.01;62.29;100462.47;2083432;28;47464;-51
2021/10/05 01:21:26;;;;;;;;;0.33;0.33;;;;;17.01;62.10;100463.31;2091237;28;48097;-50
2021/10/05 01:22:26;;;;;;;;;1.33;1.33;;;;;17.00;61.87;100458.03;2091778;28;47381;-46
2021/10/05 01:23:28;;;;;;;;;2.67;2.00;;;;;17.01;62.10;100462.47;2091219;28;47507;-47
2021/10/05 01:24:29;;;;;;;;;0.75;0.75;;;;;17.00;61.91;100461.59;2091669;28;47225;-48
2021/10/05 01:25:31;;;;;;;;;0.67;0.00;;;;;17.00;62.43;100458.03;2091232;28;46942;-49
2021/10/05 01:26:32;;;;;;;;;0.50;0.50;;;;;16.99;62.13;100450.94;2091661;28;47565;-47
2021/10/05 01:27:50;;;;;;;;;1.00;1.00;;;;;16.97;62.50;100448.34;2091455;28;48276;-46
2021/10/05 01:28:51;;;;;;;;;0.25;0.25;;;;;16.96;62.27;100446.63;2083531;28;48425;-49
2021/10/05 01:29:51;;;;;;;;;1.00;1.00;;;;;16.97;62.09;100447.50;2088044;28;47157;-47
2021/10/05 01:30:52;;;;;;;;;1.33;1.00;;;;;16.95;62.50;100442.22;2091632;28;47559;-50
2021/10/05 01:31:55;;;;;;;;;1.50;1.00;;;;;16.95;62.45;100441.34;2085097;28;46168;-50
2021/10/05 01:32:56;;;;;;;;;0.00;0.00;;;;;16.95;62.62;100436.84;2091468;28;47428;-49
2021/10/05 01:33:58;;;;;;;;;1.00;1.00;;;;;16.94;62.34;100437.81;2091170;28;46918;-48
2021/10/05 01:34:58;;;;;;;;;2.50;1.00;;;;;16.94;62.30;100434.25;2091523;28;47331;-47
2021/10/05 01:35:59;;;;;;;;;1.00;0.00;;;;;16.94;62.63;100432.44;2091463;28;47222;-48
2021/10/05 01:37:01;;;;;;;;;2.00;2.00;;;;;16.94;62.57;100426.22;2091707;28;47192;-48
2021/10/05 01:38:02;;;;;;;;;2.00;2.00;;;;;16.91;62.57;100432.59;2091010;28;47229;-49
2021/10/05 01:39:06;;;;;;;;;2.00;1.50;;;;;16.90;62.18;100425.50;2090875;28;47359;-47
2021/10/05 01:40:09;;;;;;;;;1.00;1.00;;;;;16.89;62.19;100421.06;2090969;28;47334;-47
2021/10/05 01:41:10;;;;;;;;;1.00;1.00;;;;;16.88;62.56;100419.34;2090675;28;48035;-46
2021/10/05 01:42:14;;;;;;;;;1.67;1.00;;;;;16.88;62.71;100423.84;2090905;28;47099;-49
2021/10/05 01:43:15;;;;;;;;;1.50;0.75;;;;;16.88;62.86;100421.16;2090931;28;48419;-47
2021/10/05 01:44:16;;;;;;;;;2.33;1.00;;;;;16.87;62.84;100416.75;2091313;28;46872;-51
2021/10/05 01:45:16;;;;;;;;;1.67;1.00;;;;;16.89;62.29;100422.88;2091341;28;46399;-49
2021/10/05 01:46:17;;;;;;;;;1.33;0.33;;;;;16.89;62.73;100420.22;2092028;28;48014;-48
2021/10/05 01:47:19;;;;;;;;;0.25;0.25;;;;;16.88;62.67;100418.47;2091414;28;47332;-47
2021/10/05 01:48:19;;;;;;;;;1.00;1.00;;;;;16.87;62.49;100411.38;2090916;28;47196;-48
2021/10/05 01:49:21;;;;;;;;;1.00;1.00;;;;;16.88;62.53;100411.31;2090660;28;47288;-46
2021/10/05 01:50:22;;;;;;;;;0.50;0.50;;;;;16.87;62.72;100416.75;2091286;28;47362;-48
2021/10/05 01:51:22;;;;;;;;;1.33;1.33;;;;;16.87;62.56;100408.72;2091414;28;47323;-47
2021/10/05 01:52:23;;;;;;;;;2.00;1.33;;;;;16.87;62.42;100411.38;2091382;28;47129;-47
2021/10/05 01:53:23;;;;;;;;;1.33;1.33;;;;;16.86;62.62;100402.47;2091356;28;47320;-49
2021/10/05 01:54:24;;;;;;;;;1.00;0.33;;;;;16.86;62.73;100406.97;2091367;28;48135;-47
2021/10/05 01:55:24;;;;;;;;;1.67;0.67;;;;;16.85;62.65;100400.75;2091325;28;47323;-47
2021/10/05 01:56:25;;;;;;;;;0.67;0.67;;;;;16.86;62.98;100393.56;2091382;28;47801;-47
2021/10/05 01:57:25;;;;;;;;;2.67;1.33;;;;;16.85;62.55;100382.00;2091267;28;48126;-50
2021/10/05 01:58:27;;;;;;;;;0.00;0.00;;;;;16.85;63.02;100389.16;2091163;28;46232;-47
2021/10/05 01:59:28;;;;;;;;;1.00;1.00;;;;;16.85;62.75;100389.16;2091505;28;46231;-47
2021/10/05 02:00:29;;;;;;;;;1.00;1.00;;;;;16.85;62.60;100383.81;2090829;28;47948;-48
2021/10/05 02:01:30;;;;;;;;;0.33;0.33;;;;;16.85;62.73;100378.44;2090680;28;47188;-47
2021/10/05 02:02:30;;;;;;;;;0.75;0.75;;;;;16.85;62.70;100378.44;2091524;28;48261;-48
2021/10/05 02:03:31;;;;;;;;;2.00;1.33;;;;;16.84;63.16;100369.53;2090400;28;48194;-51
2021/10/05 02:04:31;;;;;;;;;0.67;0.67;;;;;16.85;63.01;100375.75;2090921;28;47287;-47
2021/10/05 02:05:32;;;;;;;;;2.00;1.00;;;;;16.82;62.98;100371.44;2090947;28;47367;-48
2021/10/05 02:06:33;;;;;;;;;0.75;0.75;;;;;16.82;63.03;100373.25;2091420;28;46709;-46
2021/10/05 02:07:36;;;;;;;;;1.33;0.33;;;;;16.82;62.71;100376.81;2091184;28;47325;-45
2021/10/05 02:08:37;;;;;;;;;0.75;0.75;;;;;16.81;62.84;100375.06;2091187;28;47165;-47
2021/10/05 02:09:38;;;;;;;;;2.00;2.00;;;;;16.81;62.84;100374.19;2091211;28;47167;-49
2021/10/05 02:10:39;;;;;;;;;2.00;1.00;;;;;16.81;62.95;100375.06;2091518;28;48359;-47
2021/10/05 02:11:40;;;;;;;;;1.00;1.00;;;;;16.80;63.14;100373.34;2091115;28;47189;-49
2021/10/05 02:12:40;;;;;;;;;1.25;0.25;;;;;16.80;62.98;100361.75;2091334;28;45313;-48
2021/10/05 02:13:42;;;;;;;;;1.33;0.33;;;;;16.80;62.84;100354.59;2090286;28;48244;-49
2021/10/05 02:14:44;;;;;;;;;2.75;1.75;;;;;16.79;62.72;100354.66;2090604;28;47146;-47
2021/10/05 02:15:45;;;;;;;;;1.75;1.75;;;;;16.78;62.90;100351.13;2090540;28;48482;-48
2021/10/05 02:16:45;;;;;;;;;2.67;0.67;;;;;16.78;62.92;100348.44;2090717;28;48160;-50
2021/10/05 02:17:46;;;;;;;;;2.33;2.33;;;;;16.78;63.05;100348.44;2091076;28;46352;-48
2021/10/05 02:18:46;;;;;;;;;2.33;1.33;;;;;16.77;63.16;100342.22;2092028;28;46904;-50
2021/10/05 02:19:47;;;;;;;;;4.00;3.00;;;;;16.76;63.07;100342.28;2096831;28;47210;-48
2021/10/05 02:20:47;;;;;;;;;1.00;0.00;;;;;16.75;63.49;100335.19;2091440;28;48028;-46
2021/10/05 02:21:48;;;;;;;;;1.00;1.00;;;;;16.75;63.46;100340.53;2090991;28;47328;-46
2021/10/05 02:22:48;;;;;;;;;1.00;1.00;;;;;16.74;63.50;100349.53;2091371;28;48252;-46
2021/10/05 02:25:08;;;;;;;;;1.00;1.00;;;;;16.72;63.11;100332.66;2091296;28;47508;-47
2021/10/05 02:26:09;;;;;;;;;1.00;1.00;;;;;16.71;63.40;100347.88;2090565;28;47252;-48
2021/10/05 02:27:11;;;;;;;;;3.00;2.00;;;;;16.72;63.14;100340.72;2082286;28;46758;-46
2021/10/05 02:28:11;;;;;;;;;1.75;1.75;;;;;16.71;63.51;100337.16;2082310;28;47234;-49
2021/10/05 02:29:12;;;;;;;;;1.33;1.33;;;;;16.70;63.52;100330.06;2090539;28;47215;-48
2021/10/05 02:30:13;;;;;;;;;5.00;3.00;;;;;16.70;63.28;100331.91;2091169;28;46308;-48
2021/10/05 02:31:13;;;;;;;;;2.67;2.67;;;;;16.70;63.04;100330.06;2092155;28;47452;-47
2021/10/05 02:32:15;;;;;;;;;2.00;2.00;;;;;16.70;63.48;100331.91;2092763;28;46939;-46
2021/10/05 02:33:15;;;;;;;;;2.25;2.25;;;;;16.70;63.67;100319.34;2091867;28;47886;-49
2021/10/05 02:34:17;;;;;;;;;3.33;2.00;;;;;16.70;63.77;100324.72;2083626;28;46985;-48
2021/10/05 02:35:17;;;;;;;;;2.25;2.25;;;;;16.69;63.51;100314.09;2092063;28;48195;-49
2021/10/05 02:36:18;;;;;;;;;2.33;1.33;;;;;16.69;63.57;100314.94;2089808;28;47360;-49
2021/10/05 02:37:18;;;;;;;;;1.33;1.33;;;;;16.69;63.29;100314.09;2092564;28;48097;-50
2021/10/05 02:38:19;;;;;;;;;1.67;1.67;;;;;16.69;63.57;100312.28;2091889;28;45528;-46
2021/10/05 02:39:19;;;;;;;;;1.67;1.67;;;;;16.69;63.75;100314.09;2091412;28;48164;-47
2021/10/05 02:40:20;;;;;;;;;1.00;1.00;;;;;16.69;63.62;100309.59;2098371;28;47433;-45
2021/10/05 02:41:20;;;;;;;;;2.00;2.00;;;;;16.68;63.22;100313.22;2100375;27;47324;-48
2021/10/05 02:42:21;;;;;;;;;3.67;2.00;;;;;16.68;63.43;100310.53;2093658;28;46890;-52
2021/10/05 02:43:21;;;;;;;;;2.00;2.00;;;;;16.67;63.46;100300.78;2091895;28;47072;-51
2021/10/05 02:44:22;;;;;;;;;2.00;2.00;;;;;16.67;63.81;100292.75;2098707;28;47273;-46
2021/10/05 02:45:22;;;;;;;;;2.33;2.33;;;;;16.67;63.40;100303.44;2097272;28;47411;-46
2021/10/05 02:46:23;;;;;;;;;1.67;1.67;;;;;16.66;63.88;100295.47;2092065;28;47337;-47
2021/10/05 02:47:24;;;;;;;;;1.67;1.67;;;;;16.67;63.69;100295.41;2090675;28;48259;-47
2021/10/05 02:48:24;;;;;;;;;1.67;1.33;;;;;16.66;63.72;100290.97;2092354;28;46133;-47
2021/10/05 02:49:25;;;;;;;;;1.00;1.00;;;;;16.66;63.89;100290.97;2091062;28;48126;-48
2021/10/05 02:50:25;;;;;;;;;1.67;1.67;;;;;16.66;63.51;100296.34;2092072;28;47393;-46
2021/10/05 02:51:26;;;;;;;;;1.33;1.33;;;;;16.65;63.76;100302.66;2083394;28;46188;-48
2021/10/05 02:52:27;;;;;;;;;1.33;1.33;;;;;16.65;63.52;100294.59;2089631;28;47357;-48
2021/10/05 02:53:28;;;;;;;;;1.00;1.00;;;;;16.65;63.87;100301.78;2092421;28;47244;-47
2021/10/05 02:54:28;;;;;;;;;2.33;2.33;;;;;16.64;63.90;100292.88;2092644;28;48544;-46
2021/10/05 02:55:28;;;;;;;;;3.33;2.33;;;;;16.65;63.54;100291.94;2092247;28;47242;-47
2021/10/05 02:56:29;;;;;;;;;1.00;1.00;;;;;16.64;63.79;100284.84;2092842;28;45265;-46
2021/10/05 02:57:29;;;;;;;;;1.67;1.67;;;;;16.64;63.38;100282.16;2092234;28;47208;-47
2021/10/05 02:58:30;;;;;;;;;3.00;0.67;;;;;16.64;63.59;100281.25;2092514;28;46668;-46
2021/10/05 02:59:31;;;;;;;;;3.67;2.00;;;;;16.62;63.45;100273.31;2092497;28;47708;-48
2021/10/05 03:00:32;;;;;;;;;1.75;1.75;;;;;16.63;63.70;100279.53;2092621;28;47364;-52
2021/10/05 03:01:32;;;;;;;;;1.67;1.67;;;;;16.62;63.45;100280.47;2092395;28;47968;-51
2021/10/05 03:02:33;;;;;;;;;1.00;0.00;;;;;16.62;63.60;100277.81;2092624;28;47348;-47
2021/10/05 03:03:33;;;;;;;;;3.67;2.00;;;;;16.61;63.88;100268.91;2088409;28;48004;-49
2021/10/05 03:04:34;;;;;;;;;1.00;1.00;;;;;16.61;63.43;100271.59;2092617;28;47338;-50
2021/10/05 03:05:35;;;;;;;;;1.33;1.33;;;;;16.60;63.79;100264.50;2092228;28;47144;-49
2021/10/05 03:06:35;;;;;;;;;3.00;3.00;;;;;16.62;63.97;100267.09;2092452;28;48153;-50
2021/10/05 03:07:35;;;;;;;;;2.00;2.00;;;;;16.62;63.82;100269.75;2092375;28;45300;-47
2021/10/05 03:08:37;;;;;;;;;2.33;2.33;;;;;16.63;63.76;100268.81;2092401;28;47803;-48
2021/10/05 03:09:38;;;;;;;;;4.00;4.00;;;;;16.64;63.90;100271.44;2091617;28;47472;-46
2021/10/05 03:10:38;;;;;;;;;3.00;2.67;;;;;16.65;63.73;100272.31;2091575;28;47344;-48
2021/10/05 03:11:39;;;;;;;;;1.67;1.33;;;;;16.65;64.15;100266.94;2083236;28;47432;-47
2021/10/05 03:12:39;;;;;;;;;3.67;2.67;;;;;16.66;64.07;100264.19;2091790;28;48338;-47
2021/10/05 03:13:40;;;;;;;;;2.67;2.67;;;;;16.68;63.71;100266.81;2092207;28;47849;-50
2021/10/05 03:14:40;;;;;;;;;2.00;2.00;;;;;16.69;64.13;100272.09;2092382;28;47533;-48
2021/10/05 03:15:41;;;;;;;;;1.33;1.33;;;;;16.70;64.08;100276.50;2092543;28;48131;-50
2021/10/05 03:16:41;;;;;;;;;2.67;2.67;;;;;16.72;63.76;100279.09;2092490;28;47167;-49
2021/10/05 03:17:43;;;;;;;;;1.67;1.67;;;;;16.74;63.85;100271.81;2092285;28;47177;-46
2021/10/05 03:18:45;;;;;;;;;2.00;2.00;;;;;16.74;63.92;100270.00;2093168;28;47493;-48
2021/10/05 03:19:45;;;;;;;;;2.00;2.00;;;;;16.76;63.62;100264.56;2098032;28;48313;-50
2021/10/05 03:20:46;;;;;;;;;2.00;1.67;;;;;16.76;63.86;100265.44;2091957;28;47082;-47
2021/10/05 03:21:46;;;;;;;;;1.00;1.00;;;;;16.76;64.06;100254.69;2091460;28;46815;-46
2021/10/05 03:22:46;;;;;;;;;1.00;1.00;;;;;16.77;63.81;100251.09;2091710;28;46766;-48
2021/10/05 03:23:47;;;;;;;;;1.33;1.33;;;;;16.77;63.49;100250.25;2092343;28;48288;-47
2021/10/05 03:24:47;;;;;;;;;2.67;2.67;;;;;16.79;63.88;100259.06;2092276;28;48254;-48
2021/10/05 03:25:48;;;;;;;;;2.67;2.67;;;;;16.77;63.57;100245.75;2092406;28;47461;-50
2021/10/05 03:26:49;;;;;;;;;3.00;3.00;;;;;16.78;63.65;100249.28;2092333;28;47270;-48
2021/10/05 03:27:49;;;;;;;;;2.00;2.00;;;;;16.79;64.13;100244.78;2092093;28;48489;-51
2021/10/05 03:28:50;;;;;;;;;2.00;2.00;;;;;16.78;63.76;100243.94;2092537;28;47122;-47
2021/10/05 03:29:50;;;;;;;;;1.67;1.67;;;;;16.80;64.10;100238.47;2092223;28;47139;-48
2021/10/05 03:30:51;;;;;;;;;1.33;1.33;;;;;16.80;63.79;100234.00;2091669;28;47477;-47
2021/10/05 03:31:51;;;;;;;;;3.33;3.33;;;;;16.80;63.95;100238.47;2091669;28;47316;-48
2021/10/05 03:32:52;;;;;;;;;3.00;2.00;;;;;16.81;63.85;100232.16;2089616;28;47044;-49
2021/10/05 03:33:52;;;;;;;;;2.00;2.00;;;;;16.80;63.69;100227.75;2091026;28;46783;-47
2021/10/05 03:34:53;;;;;;;;;2.33;2.33;;;;;16.80;64.24;100235.81;2084229;28;47281;-47
2021/10/05 03:35:54;;;;;;;;;5.00;2.00;;;;;16.81;63.84;100237.53;2091649;28;47216;-47
2021/10/05 03:36:54;;;;;;;;;2.33;2.33;;;;;16.81;63.82;100225.00;2090978;28;48235;-48
2021/10/05 03:37:55;;;;;;;;;2.67;2.67;;;;;16.82;63.81;100228.53;2083735;28;48312;-47
2021/10/05 03:38:55;;;;;;;;;1.67;1.00;;;;;16.83;63.68;100224.91;2092043;28;47975;-50
2021/10/05 03:39:56;;;;;;;;;3.67;3.67;;;;;16.82;63.75;100213.31;2092183;28;47133;-46
2021/10/05 03:40:56;;;;;;;;;2.33;2.33;;;;;16.84;64.02;100213.22;2092424;28;47362;-47
2021/10/05 03:41:57;;;;;;;;;2.00;2.00;;;;;16.84;63.97;100213.22;2092132;28;46993;-48
2021/10/05 03:42:57;;;;;;;;;2.33;2.33;;;;;16.85;64.14;100212.28;2091258;28;47652;-50
2021/10/05 03:43:58;;;;;;;;;2.67;2.67;;;;;16.84;63.83;100198.03;2092207;28;47293;-50
2021/10/05 03:44:59;;;;;;;;;3.67;3.67;;;;;16.86;64.18;100195.25;2092251;28;46230;-51
2021/10/05 03:46:00;;;;;;;;;3.00;3.00;;;;;16.87;63.73;100194.28;2093722;28;45456;-46
2021/10/05 03:47:01;;;;;;;;;4.67;4.67;;;;;16.88;64.08;100196.03;2092499;28;48158;-49
2021/10/05 03:48:01;;;;;;;;;5.75;4.75;;;;;16.89;63.74;100195.06;2092076;28;47365;-47
2021/10/05 03:49:03;;;;;;;;;2.67;2.67;;;;;16.89;63.85;100189.72;2092511;28;47141;-50
2021/10/05 03:50:06;;;;;;;;;3.50;3.50;;;;;16.89;63.83;100189.72;2091376;28;46599;-48
2021/10/05 03:51:06;;;;;;;;;4.00;3.75;;;;;16.91;63.79;100187.84;2091635;28;45217;-46
2021/10/05 03:52:07;;;;;;;;;3.33;3.33;;;;;16.93;63.65;100180.56;2100161;27;47174;-47
2021/10/05 03:53:07;;;;;;;;;3.33;3.33;;;;;16.92;63.40;100185.06;2099629;28;47661;-51
2021/10/05 03:54:08;;;;;;;;;4.33;3.33;;;;;16.93;63.79;100185.94;2083982;28;47310;-49
2021/10/05 03:55:09;;;;;;;;;4.33;4.33;;;;;16.92;63.93;100173.47;2091528;28;45377;-49
2021/10/05 03:56:09;;;;;;;;;3.00;3.00;;;;;16.92;64.00;100187.75;2092229;28;47351;-47
2021/10/05 03:57:10;;;;;;;;;3.00;3.00;;;;;16.93;63.96;100185.94;2092109;28;47152;-49
2021/10/05 03:58:10;;;;;;;;;3.00;3.00;;;;;16.93;64.10;100177.88;2092001;28;48126;-47
2021/10/05 03:59:15;;;;;;;;;4.67;4.33;;;;;16.95;63.72;100184.03;2091259;28;47394;-49
2021/10/05 04:00:16;;;;;;;;;3.50;3.00;;;;;16.94;63.85;100182.28;2091681;28;47208;-49
2021/10/05 04:01:17;;;;;;;;;3.00;3.00;;;;;16.94;63.54;100176.94;2091984;28;48105;-47
2021/10/05 04:02:17;;;;;;;;;4.67;4.33;;;;;16.92;63.88;100182.38;2092057;28;47681;-48
2021/10/05 04:03:18;;;;;;;;;4.00;3.00;;;;;16.93;63.75;100180.56;2091995;28;46397;-46
2021/10/05 04:04:18;;;;;;;;;5.00;5.00;;;;;16.94;63.60;100171.56;2092085;28;47239;-49
2021/10/05 04:05:19;;;;;;;;;5.33;5.00;;;;;16.94;64.01;100164.41;2092203;28;47090;-49
2021/10/05 04:06:19;;;;;;;;;4.33;4.33;;;;;16.94;63.79;100174.25;2092141;28;47301;-49
2021/10/05 04:07:20;;;;;;;;;4.33;3.33;;;;;16.94;64.10;100172.44;2092117;28;46097;-49
2021/10/05 04:08:20;;;;;;;;;4.33;4.33;;;;;16.94;63.72;100180.47;2091865;28;47259;-47
2021/10/05 04:09:21;;;;;;;;;4.67;4.67;;;;;16.94;63.89;100169.75;2091853;28;47182;-51
2021/10/05 04:10:21;;;;;;;;;4.00;4.00;;;;;16.95;63.88;100167.94;2092143;28;47065;-50
2021/10/05 04:11:22;;;;;;;;;4.00;4.00;;;;;16.96;64.16;100164.31;2092045;28;48164;-49
2021/10/05 04:12:22;;;;;;;;;5.67;4.33;;;;;16.96;63.95;100169.66;2092000;28;47310;-48
2021/10/05 04:13:23;;;;;;;;;5.67;5.67;;;;;16.96;63.94;100167.84;2091894;28;46525;-48
2021/10/05 04:14:23;;;;;;;;;4.00;4.00;;;;;16.96;63.91;100170.53;2091327;28;47708;-48
2021/10/05 04:15:24;;;;;;;;;5.33;4.33;;;;;16.96;63.75;100169.66;2091254;28;48031;-48
2021/10/05 04:16:24;;;;;;;;;4.00;4.00;;;;;16.95;64.16;100163.44;2092292;28;48065;-47
2021/10/05 04:17:25;;;;;;;;;4.00;4.00;;;;;16.95;63.83;100159.91;2091800;28;46588;-47
2021/10/05 04:18:25;;;;;;;;;5.33;4.00;;;;;16.96;63.90;100158.94;2091329;28;48162;-48
2021/10/05 04:19:26;;;;;;;;;3.00;3.00;;;;;16.96;63.84;100165.16;2098103;28;47091;-46
2021/10/05 04:20:26;;;;;;;;;4.00;3.00;;;;;16.95;63.95;100163.44;2092754;27;47171;-54
2021/10/05 04:21:27;;;;;;;;;3.00;3.00;;;;;16.94;64.08;100156.34;2091606;28;47236;-46
2021/10/05 04:22:28;;;;;;;;;2.67;2.67;;;;;16.95;63.99;100151.84;2092235;28;47152;-50
2021/10/05 04:23:28;;;;;;;;;4.33;3.67;;;;;16.95;64.02;100143.81;2091502;28;47161;-50
2021/10/05 04:24:29;;;;;;;;;2.67;2.67;;;;;16.94;64.05;100142.94;2092178;28;47200;-49
2021/10/05 04:25:29;;;;;;;;;6.00;4.33;;;;;16.95;63.76;100138.44;2091110;28;47120;-50
2021/10/05 04:26:30;;;;;;;;;5.33;3.33;;;;;16.95;63.91;100133.97;2091510;28;47062;-50
2021/10/05 04:27:30;;;;;;;;;3.33;3.33;;;;;16.95;64.19;100144.69;2091856;28;45502;-48
2021/10/05 04:28:31;;;;;;;;;1.00;1.00;;;;;16.96;63.96;100137.50;2091987;28;48012;-50
2021/10/05 04:29:31;;;;;;;;;3.00;3.00;;;;;16.98;64.06;100135.59;2091093;28;45304;-46
2021/10/05 04:30:32;;;;;;;;;3.00;2.00;;;;;16.98;63.96;100133.78;2091454;28;48042;-49
2021/10/05 04:31:32;;;;;;;;;2.33;2.33;;;;;16.99;64.07;100129.28;2091764;28;46316;-49
2021/10/05 04:32:33;;;;;;;;;3.67;3.67;;;;;17.00;63.86;100139.03;2092136;28;47349;-50
2021/10/05 04:33:35;;;;;;;;;4.00;2.00;;;;;16.99;63.70;100131.97;2091703;28;46191;-49
2021/10/05 04:34:35;;;;;;;;;3.75;2.50;;;;;16.99;63.72;100130.13;2091907;28;47313;-52
2021/10/05 04:35:36;;;;;;;;;4.00;2.00;;;;;17.00;63.82;100133.69;2091869;28;45215;-50
2021/10/05 04:36:36;;;;;;;;;2.00;2.00;;;;;17.00;63.90;100129.19;2091994;28;47360;-52
2021/10/05 04:37:37;;;;;;;;;2.00;2.00;;;;;17.00;63.74;100131.88;2091524;28;48097;-50
2021/10/05 04:38:37;;;;;;;;;1.33;1.33;;;;;17.00;63.86;100139.03;2091083;28;47301;-49
2021/10/05 04:39:38;;;;;;;;;2.33;2.33;;;;;16.99;63.76;100130.13;2090995;28;47184;-49
2021/10/05 04:40:38;;;;;;;;;2.00;2.00;;;;;16.98;63.89;100131.09;2091474;28;46748;-49
2021/10/05 04:41:39;;;;;;;;;3.00;3.00;;;;;16.99;63.56;100131.97;2082721;28;47043;-46
2021/10/05 04:42:40;;;;;;;;;2.00;2.00;;;;;16.97;63.58;100121.31;2091056;28;48272;-51
2021/10/05 04:43:40;;;;;;;;;2.50;1.50;;;;;16.97;63.60;100118.66;2091773;28;45315;-48